Churchill Falls Airport

Airport
ICAO code: 
CZUM
IATA Code: 
ZUM
Summary
ICAO Region: 
NAM
Territory: 
Location: 
Churchill Falls, Newfoundland and Labrador,
Serving: 
Churchill Falls
Elevation: 
1442 ft
Coordinates: 
Aerial View: 
53° 33' 45.508" N, 64° 6' 22.609" W
Metar
Observation
CZUM 271223Z AUTO 08006KT 2SM -RA BR BKN004 OVC015 01/01 A2922 RMK SLP916
Station
Churchill Falls, Nfld.
Date/Time
2021-11-27 12:23:00
Wind direction
80°
Wind speed
06 kts
Lowest cloud amount
broken clouds
Temperature
1°C
Dew point
1°C
Humidity
100%
Weather condition
light

Runways

Designator Length Width Surface Rops
13/31 1676 46 ASP No/No
Airport map: 
Aerial View: 

SKYbrary Partners:

Safety knowledge contributed by: